sensor_id;sensor_type;location;lat;lon;timestamp;temperature;humidity
76104;HTU21D;64831;44.870;37.336;2022-11-25T10:08:55;20.50;52.42
76104;HTU21D;64831;44.870;37.336;2022-11-25T10:22:25;20.35;50.34
76104;HTU21D;64831;44.870;37.336;2022-11-25T10:24:52;20.41;50.50
76104;HTU21D;64831;44.870;37.336;2022-11-25T10:30:17;20.27;50.47
76104;HTU21D;64831;44.870;37.336;2022-11-25T10:33:19;20.20;50.13
76104;HTU21D;64831;44.870;37.336;2022-11-25T10:35:54;20.27;50.29
76104;HTU21D;64831;44.870;37.336;2022-11-25T10:38:26;20.42;50.27
76104;HTU21D;64831;44.870;37.336;2022-11-25T10:40:54;20.59;49.93
76104;HTU21D;64831;44.870;37.336;2022-11-25T10:43:21;20.65;49.67
76104;HTU21D;64831;44.870;37.336;2022-11-25T10:46:01;20.69;49.36
76104;HTU21D;64831;44.870;37.336;2022-11-25T10:49:26;20.73;48.86
76104;HTU21D;64831;44.870;37.336;2022-11-25T10:51:54;20.72;49.18
76104;HTU21D;64831;44.870;37.336;2022-11-25T10:54:36;20.64;49.26
76104;HTU21D;64831;44.870;37.336;2022-11-25T10:57:03;20.56;49.62
76104;HTU21D;64831;44.870;37.336;2022-11-25T10:59:41;20.50;49.73
76104;HTU21D;64831;44.870;37.336;2022-11-25T11:07:38;20.34;50.66
76104;HTU21D;64831;44.870;37.336;2022-11-25T11:12:58;20.30;51.89
76104;HTU21D;64831;44.870;37.336;2022-11-25T11:16:00;20.28;52.08
76104;HTU21D;64831;44.870;37.336;2022-11-25T11:20:47;20.31;51.96
76104;HTU21D;64831;44.870;37.336;2022-11-25T11:23:14;20.24;51.66
76104;HTU21D;64831;44.870;37.336;2022-11-25T11:25:43;20.18;51.66
76104;HTU21D;64831;44.870;37.336;2022-11-25T11:31:24;20.06;52.11
76104;HTU21D;64831;44.870;37.336;2022-11-25T11:36:33;19.98;53.35
76104;HTU21D;64831;44.870;37.336;2022-11-25T11:42:13;19.82;54.22
76104;HTU21D;64831;44.870;37.336;2022-11-25T11:50:52;19.57;55.43
76104;HTU21D;64831;44.870;37.336;2022-11-25T11:56:23;19.44;56.26
76104;HTU21D;64831;44.870;37.336;2022-11-25T12:02:15;19.38;57.00
76104;HTU21D;64831;44.870;37.336;2022-11-25T12:10:48;19.14;58.19
76104;HTU21D;64831;44.870;37.336;2022-11-25T12:16:02;19.03;58.00
76104;HTU21D;64831;44.870;37.336;2022-11-25T12:18:52;18.97;57.96
76104;HTU21D;64831;44.870;37.336;2022-11-25T12:33:02;18.72;59.13
76104;HTU21D;64831;44.870;37.336;2022-11-25T12:35:16;18.66;59.19
76104;HTU21D;64831;44.870;37.336;2022-11-25T12:41:15;18.56;58.54
76104;HTU21D;64831;44.870;37.336;2022-11-25T12:43:27;18.51;58.25
76104;HTU21D;64831;44.870;37.336;2022-11-25T12:48:51;18.40;57.84
76104;HTU21D;64831;44.870;37.336;2022-11-25T13:16:46;17.77;59.32
76104;HTU21D;64831;44.870;37.336;2022-11-25T13:19:15;17.69;59.59
76104;HTU21D;64831;44.870;37.336;2022-11-25T13:24:42;17.48;61.21
76104;HTU21D;64831;44.870;37.336;2022-11-25T13:30:21;17.35;62.97
76104;HTU21D;64831;44.870;37.336;2022-11-25T13:32:51;17.29;63.69
76104;HTU21D;64831;44.870;37.336;2022-11-25T13:37:47;17.23;65.79
76104;HTU21D;64831;44.870;37.336;2022-11-25T13:42:49;17.10;66.79
76104;HTU21D;64831;44.870;37.336;2022-11-25T13:45:42;17.05;67.58
76104;HTU21D;64831;44.870;37.336;2022-11-25T13:48:35;16.96;67.96
76104;HTU21D;64831;44.870;37.336;2022-11-25T13:51:17;16.89;68.19
76104;HTU21D;64831;44.870;37.336;2022-11-25T13:53:53;16.84;68.67
76104;HTU21D;64831;44.870;37.336;2022-11-25T14:04:12;16.72;70.34
76104;HTU21D;64831;44.870;37.336;2022-11-25T14:07:16;16.72;70.83
76104;HTU21D;64831;44.870;37.336;2022-11-25T14:12:57;16.71;71.29
76104;HTU21D;64831;44.870;37.336;2022-11-25T14:15:42;16.66;71.24
76104;HTU21D;64831;44.870;37.336;2022-11-25T14:24:45;16.64;71.44
76104;HTU21D;64831;44.870;37.336;2022-11-25T14:27:21;16.67;72.06
76104;HTU21D;64831;44.870;37.336;2022-11-25T14:29:55;16.65;72.15
76104;HTU21D;64831;44.870;37.336;2022-11-25T14:32:43;16.66;72.23
76104;HTU21D;64831;44.870;37.336;2022-11-25T14:35:49;16.64;72.13
76104;HTU21D;64831;44.870;37.336;2022-11-25T14:38:24;16.61;72.05
76104;HTU21D;64831;44.870;37.336;2022-11-25T14:41:32;16.59;72.23
76104;HTU21D;64831;44.870;37.336;2022-11-25T14:44:13;16.58;72.26
76104;HTU21D;64831;44.870;37.336;2022-11-25T14:47:09;16.56;72.51
76104;HTU21D;64831;44.870;37.336;2022-11-25T14:49:52;16.51;72.45
76104;HTU21D;64831;44.870;37.336;2022-11-25T14:52:28;16.51;72.62
76104;HTU21D;64831;44.870;37.336;2022-11-25T14:54:56;16.48;72.70
76104;HTU21D;64831;44.870;37.336;2022-11-25T14:57:26;16.46;72.87
76104;HTU21D;64831;44.870;37.336;2022-11-25T14:59:55;16.45;72.95
76104;HTU21D;64831;44.870;37.336;2022-11-25T15:02:31;16.44;73.18
76104;HTU21D;64831;44.870;37.336;2022-11-25T15:07:33;16.39;73.41
76104;HTU21D;64831;44.870;37.336;2022-11-25T15:09:59;16.35;73.50
76104;HTU21D;64831;44.870;37.336;2022-11-25T15:12:32;16.32;73.65
76104;HTU21D;64831;44.870;37.336;2022-11-25T15:14:58;16.27;73.73
76104;HTU21D;64831;44.870;37.336;2022-11-25T15:17:31;16.24;73.85
76104;HTU21D;64831;44.870;37.336;2022-11-25T15:20:11;16.20;73.93
76104;HTU21D;64831;44.870;37.336;2022-11-25T15:22:37;16.15;73.95
76104;HTU21D;64831;44.870;37.336;2022-11-25T15:25:11;16.12;74.05
76104;HTU21D;64831;44.870;37.336;2022-11-25T15:27:44;16.07;74.05
76104;HTU21D;64831;44.870;37.336;2022-11-25T15:30:25;16.04;74.15
76104;HTU21D;64831;44.870;37.336;2022-11-25T15:32:52;16.00;74.16
76104;HTU21D;64831;44.870;37.336;2022-11-25T15:35:21;15.96;74.27
76104;HTU21D;64831;44.870;37.336;2022-11-25T15:37:47;15.91;74.23
76104;HTU21D;64831;44.870;37.336;2022-11-25T15:40:30;15.88;74.22
76104;HTU21D;64831;44.870;37.336;2022-11-25T15:42:57;15.83;74.18
76104;HTU21D;64831;44.870;37.336;2022-11-25T15:45:36;15.78;74.20
76104;HTU21D;64831;44.870;37.336;2022-11-25T15:48:16;15.75;74.28
76104;HTU21D;64831;44.870;37.336;2022-11-25T15:50:43;15.73;74.80
76104;HTU21D;64831;44.870;37.336;2022-11-25T15:53:22;15.72;75.08
76104;HTU21D;64831;44.870;37.336;2022-11-25T15:55:50;15.71;75.30
76104;HTU21D;64831;44.870;37.336;2022-11-25T15:58:21;15.69;75.48
76104;HTU21D;64831;44.870;37.336;2022-11-25T16:01:18;15.66;75.57
76104;HTU21D;64831;44.870;37.336;2022-11-25T16:03:45;15.63;75.52
76104;HTU21D;64831;44.870;37.336;2022-11-25T16:06:50;15.62;75.48
76104;HTU21D;64831;44.870;37.336;2022-11-25T16:09:20;15.62;75.37
76104;HTU21D;64831;44.870;37.336;2022-11-25T16:11:46;15.67;75.17
76104;HTU21D;64831;44.870;37.336;2022-11-25T16:14:17;15.71;74.83
76104;HTU21D;64831;44.870;37.336;2022-11-25T16:16:45;15.76;74.51
76104;HTU21D;64831;44.870;37.336;2022-11-25T16:19:17;15.77;74.36
76104;HTU21D;64831;44.870;37.336;2022-11-25T16:21:53;15.80;74.33
76104;HTU21D;64831;44.870;37.336;2022-11-25T16:27:15;15.81;74.31
76104;HTU21D;64831;44.870;37.336;2022-11-25T16:32:25;15.73;74.50
76104;HTU21D;64831;44.870;37.336;2022-11-25T16:34:54;15.71;74.72
76104;HTU21D;64831;44.870;37.336;2022-11-25T16:37:21;15.74;75.05
76104;HTU21D;64831;44.870;37.336;2022-11-25T16:39:47;15.71;75.15
76104;HTU21D;64831;44.870;37.336;2022-11-25T16:42:18;15.70;75.25
76104;HTU21D;64831;44.870;37.336;2022-11-25T16:44:46;15.69;75.43
76104;HTU21D;64831;44.870;37.336;2022-11-25T16:47:13;15.69;75.54
76104;HTU21D;64831;44.870;37.336;2022-11-25T16:49:39;15.69;75.54
76104;HTU21D;64831;44.870;37.336;2022-11-25T16:52:05;15.70;75.50
76104;HTU21D;64831;44.870;37.336;2022-11-25T16:54:31;15.73;75.46
76104;HTU21D;64831;44.870;37.336;2022-11-25T16:56:58;15.75;75.28
76104;HTU21D;64831;44.870;37.336;2022-11-25T16:59:29;15.78;75.06
76104;HTU21D;64831;44.870;37.336;2022-11-25T17:01:56;15.82;74.85
76104;HTU21D;64831;44.870;37.336;2022-11-25T17:04:24;15.86;74.65
76104;HTU21D;64831;44.870;37.336;2022-11-25T17:06:50;15.89;74.56
76104;HTU21D;64831;44.870;37.336;2022-11-25T17:09:16;15.90;74.36
76104;HTU21D;64831;44.870;37.336;2022-11-25T17:11:48;15.90;74.23
76104;HTU21D;64831;44.870;37.336;2022-11-25T17:14:37;15.88;74.07
76104;HTU21D;64831;44.870;37.336;2022-11-25T17:17:03;15.81;73.99
76104;HTU21D;64831;44.870;37.336;2022-11-25T17:19:29;15.76;74.02
76104;HTU21D;64831;44.870;37.336;2022-11-25T17:21:55;15.69;74.09
76104;HTU21D;64831;44.870;37.336;2022-11-25T17:24:23;15.63;74.26
76104;HTU21D;64831;44.870;37.336;2022-11-25T17:27:02;15.59;74.38
76104;HTU21D;64831;44.870;37.336;2022-11-25T17:29:36;15.54;74.38
76104;HTU21D;64831;44.870;37.336;2022-11-25T17:32:08;15.49;74.41
76104;HTU21D;64831;44.870;37.336;2022-11-25T17:34:36;15.45;74.55
76104;HTU21D;64831;44.870;37.336;2022-11-25T17:37:05;15.41;74.80
76104;HTU21D;64831;44.870;37.336;2022-11-25T17:39:31;15.38;75.02
76104;HTU21D;64831;44.870;37.336;2022-11-25T17:41:57;15.36;75.08
76104;HTU21D;64831;44.870;37.336;2022-11-25T17:44:27;15.34;75.15
76104;HTU21D;64831;44.870;37.336;2022-11-25T17:46:56;15.30;75.17
76104;HTU21D;64831;44.870;37.336;2022-11-25T17:49:22;15.29;75.25
76104;HTU21D;64831;44.870;37.336;2022-11-25T17:51:48;15.27;75.30
76104;HTU21D;64831;44.870;37.336;2022-11-25T17:54:15;15.25;75.34
76104;HTU21D;64831;44.870;37.336;2022-11-25T17:56:43;15.24;75.37
76104;HTU21D;64831;44.870;37.336;2022-11-25T17:59:13;15.22;75.39
76104;HTU21D;64831;44.870;37.336;2022-11-25T18:01:41;15.21;75.37
76104;HTU21D;64831;44.870;37.336;2022-11-25T18:04:21;15.18;75.36
76104;HTU21D;64831;44.870;37.336;2022-11-25T18:06:48;15.14;75.39
76104;HTU21D;64831;44.870;37.336;2022-11-25T18:09:15;15.12;75.44
76104;HTU21D;64831;44.870;37.336;2022-11-25T18:11:44;15.11;75.50
76104;HTU21D;64831;44.870;37.336;2022-11-25T18:14:15;15.08;75.47
76104;HTU21D;64831;44.870;37.336;2022-11-25T18:16:42;15.01;75.31
76104;HTU21D;64831;44.870;37.336;2022-11-25T18:19:11;14.96;75.45
76104;HTU21D;64831;44.870;37.336;2022-11-25T18:21:38;14.94;75.56
76104;HTU21D;64831;44.870;37.336;2022-11-25T18:24:04;14.91;75.51
76104;HTU21D;64831;44.870;37.336;2022-11-25T18:26:49;14.85;75.41
76104;HTU21D;64831;44.870;37.336;2022-11-25T18:29:25;14.82;75.34
76104;HTU21D;64831;44.870;37.336;2022-11-25T18:31:52;14.79;75.38
76104;HTU21D;64831;44.870;37.336;2022-11-25T18:34:20;14.74;75.41
76104;HTU21D;64831;44.870;37.336;2022-11-25T18:36:46;14.72;75.47
76104;HTU21D;64831;44.870;37.336;2022-11-25T18:39:12;14.69;75.47
76104;HTU21D;64831;44.870;37.336;2022-11-25T18:41:39;14.68;75.60
76104;HTU21D;64831;44.870;37.336;2022-11-25T18:44:06;14.66;75.83
76104;HTU21D;64831;44.870;37.336;2022-11-25T18:46:36;14.67;75.95
76104;HTU21D;64831;44.870;37.336;2022-11-25T18:49:12;14.68;76.11
76104;HTU21D;64831;44.870;37.336;2022-11-25T18:51:39;14.70;76.35
76104;HTU21D;64831;44.870;37.336;2022-11-25T18:54:06;14.70;76.50
76104;HTU21D;64831;44.870;37.336;2022-11-25T18:56:34;14.72;76.61
76104;HTU21D;64831;44.870;37.336;2022-11-25T18:59:01;14.72;76.60
76104;HTU21D;64831;44.870;37.336;2022-11-25T19:01:27;14.71;76.43
76104;HTU21D;64831;44.870;37.336;2022-11-25T19:03:54;14.68;76.18
76104;HTU21D;64831;44.870;37.336;2022-11-25T19:06:20;14.64;76.02
76104;HTU21D;64831;44.870;37.336;2022-11-25T19:08:47;14.60;75.96
76104;HTU21D;64831;44.870;37.336;2022-11-25T19:11:17;14.57;75.85
76104;HTU21D;64831;44.870;37.336;2022-11-25T19:13:45;14.53;75.78
76104;HTU21D;64831;44.870;37.336;2022-11-25T19:16:17;14.47;75.76
76104;HTU21D;64831;44.870;37.336;2022-11-25T19:18:45;14.44;75.86
76104;HTU21D;64831;44.870;37.336;2022-11-25T19:21:17;14.41;76.05
76104;HTU21D;64831;44.870;37.336;2022-11-25T19:23:44;14.40;76.24
76104;HTU21D;64831;44.870;37.336;2022-11-25T19:26:16;14.40;76.43
76104;HTU21D;64831;44.870;37.336;2022-11-25T19:28:44;14.39;76.45
76104;HTU21D;64831;44.870;37.336;2022-11-25T19:31:11;14.37;76.38
76104;HTU21D;64831;44.870;37.336;2022-11-25T19:33:39;14.36;76.28
76104;HTU21D;64831;44.870;37.336;2022-11-25T19:36:14;14.35;76.20
76104;HTU21D;64831;44.870;37.336;2022-11-25T19:38:41;14.30;76.12
76104;HTU21D;64831;44.870;37.336;2022-11-25T19:41:07;14.33;75.98
76104;HTU21D;64831;44.870;37.336;2022-11-25T19:43:33;14.27;75.76
76104;HTU21D;64831;44.870;37.336;2022-11-25T19:45:59;14.22;75.66
76104;HTU21D;64831;44.870;37.336;2022-11-25T19:48:28;14.22;75.59
76104;HTU21D;64831;44.870;37.336;2022-11-25T19:50:58;14.20;75.44
76104;HTU21D;64831;44.870;37.336;2022-11-25T19:53:26;14.18;75.51
76104;HTU21D;64831;44.870;37.336;2022-11-25T19:55:52;14.22;75.51
76104;HTU21D;64831;44.870;37.336;2022-11-25T19:58:18;14.28;75.70
76104;HTU21D;64831;44.870;37.336;2022-11-25T20:00:45;14.35;75.62
76104;HTU21D;64831;44.870;37.336;2022-11-25T20:03:22;14.43;75.53
76104;HTU21D;64831;44.870;37.336;2022-11-25T20:05:51;14.50;75.57
76104;HTU21D;64831;44.870;37.336;2022-11-25T20:08:23;14.54;75.64
76104;HTU21D;64831;44.870;37.336;2022-11-25T20:10:50;14.58;75.67
76104;HTU21D;64831;44.870;37.336;2022-11-25T20:13:16;14.64;75.76
76104;HTU21D;64831;44.870;37.336;2022-11-25T20:15:43;14.68;75.79
76104;HTU21D;64831;44.870;37.336;2022-11-25T20:18:15;14.68;75.83
76104;HTU21D;64831;44.870;37.336;2022-11-25T20:20:43;14.69;75.84
76104;HTU21D;64831;44.870;37.336;2022-11-25T20:23:25;14.71;75.99
76104;HTU21D;64831;44.870;37.336;2022-11-25T20:25:52;14.73;76.06
76104;HTU21D;64831;44.870;37.336;2022-11-25T20:28:23;14.75;76.15
76104;HTU21D;64831;44.870;37.336;2022-11-25T20:30:50;14.78;76.20
76104;HTU21D;64831;44.870;37.336;2022-11-25T20:33:17;14.80;76.22
76104;HTU21D;64831;44.870;37.336;2022-11-25T20:35:45;14.85;76.41
76104;HTU21D;64831;44.870;37.336;2022-11-25T20:38:18;14.91;76.60
76104;HTU21D;64831;44.870;37.336;2022-11-25T20:40:46;14.95;76.71
76104;HTU21D;64831;44.870;37.336;2022-11-25T20:43:28;15.03;77.02
76104;HTU21D;64831;44.870;37.336;2022-11-25T20:45:56;15.08;77.02
76104;HTU21D;64831;44.870;37.336;2022-11-25T20:48:23;15.12;77.08
76104;HTU21D;64831;44.870;37.336;2022-11-25T20:50:49;15.15;76.92
76104;HTU21D;64831;44.870;37.336;2022-11-25T20:53:17;15.18;76.70
76104;HTU21D;64831;44.870;37.336;2022-11-25T20:55:44;15.18;76.52
76104;HTU21D;64831;44.870;37.336;2022-11-25T20:58:20;15.19;76.36
76104;HTU21D;64831;44.870;37.336;2022-11-25T21:00:46;15.19;76.21
76104;HTU21D;64831;44.870;37.336;2022-11-25T21:03:12;15.15;75.92
76104;HTU21D;64831;44.870;37.336;2022-11-25T21:05:38;15.11;75.76
76104;HTU21D;64831;44.870;37.336;2022-11-25T21:08:12;15.08;75.59
76104;HTU21D;64831;44.870;37.336;2022-11-25T21:10:40;15.03;75.51
76104;HTU21D;64831;44.870;37.336;2022-11-25T21:13:25;15.00;75.44
76104;HTU21D;64831;44.870;37.336;2022-11-25T21:15:52;14.96;75.33
76104;HTU21D;64831;44.870;37.336;2022-11-25T21:18:19;14.92;75.31
76104;HTU21D;64831;44.870;37.336;2022-11-25T21:20:46;14.88;75.32
76104;HTU21D;64831;44.870;37.336;2022-11-25T21:23:22;14.85;75.42
76104;HTU21D;64831;44.870;37.336;2022-11-25T21:25:49;14.83;75.45
76104;HTU21D;64831;44.870;37.336;2022-11-25T21:28:18;14.80;75.42
76104;HTU21D;64831;44.870;37.336;2022-11-25T21:30:45;14.77;75.45
76104;HTU21D;64831;44.870;37.336;2022-11-25T21:33:15;14.72;75.56
76104;HTU21D;64831;44.870;37.336;2022-11-25T21:35:43;14.66;75.63
76104;HTU21D;64831;44.870;37.336;2022-11-25T21:38:23;14.60;75.74
76104;HTU21D;64831;44.870;37.336;2022-11-25T21:40:56;14.55;75.83
76104;HTU21D;64831;44.870;37.336;2022-11-25T21:43:31;14.49;75.95
76104;HTU21D;64831;44.870;37.336;2022-11-25T21:46:03;14.43;75.85
76104;HTU21D;64831;44.870;37.336;2022-11-25T21:48:30;14.37;75.79
76104;HTU21D;64831;44.870;37.336;2022-11-25T21:50:56;14.32;75.89
76104;HTU21D;64831;44.870;37.336;2022-11-25T21:53:23;14.28;75.90
76104;HTU21D;64831;44.870;37.336;2022-11-25T21:55:50;14.27;75.95
76104;HTU21D;64831;44.870;37.336;2022-11-25T21:58:22;14.26;75.94
76104;HTU21D;64831;44.870;37.336;2022-11-25T22:00:59;14.26;75.95
76104;HTU21D;64831;44.870;37.336;2022-11-25T22:03:27;14.26;76.01
76104;HTU21D;64831;44.870;37.336;2022-11-25T22:05:55;14.28;76.04
76104;HTU21D;64831;44.870;37.336;2022-11-25T22:08:21;14.28;76.10
76104;HTU21D;64831;44.870;37.336;2022-11-25T22:10:49;14.30;76.21
76104;HTU21D;64831;44.870;37.336;2022-11-25T22:13:27;14.34;76.25
76104;HTU21D;64831;44.870;37.336;2022-11-25T22:15:58;14.34;76.14
76104;HTU21D;64831;44.870;37.336;2022-11-25T22:18:27;14.33;76.08
76104;HTU21D;64831;44.870;37.336;2022-11-25T22:20:54;14.32;75.99
76104;HTU21D;64831;44.870;37.336;2022-11-25T22:23:20;14.32;76.15
76104;HTU21D;64831;44.870;37.336;2022-11-25T22:25:47;14.34;76.10
76104;HTU21D;64831;44.870;37.336;2022-11-25T22:28:16;14.34;75.98
76104;HTU21D;64831;44.870;37.336;2022-11-25T22:30:54;14.37;75.89
76104;HTU21D;64831;44.870;37.336;2022-11-25T22:33:32;14.37;75.71
76104;HTU21D;64831;44.870;37.336;2022-11-25T22:35:59;14.30;75.62
76104;HTU21D;64831;44.870;37.336;2022-11-25T22:38:26;14.28;75.60
76104;HTU21D;64831;44.870;37.336;2022-11-25T22:41:01;14.27;75.62
76104;HTU21D;64831;44.870;37.336;2022-11-25T22:43:34;14.25;75.60
76104;HTU21D;64831;44.870;37.336;2022-11-25T22:46:02;14.21;75.62
76104;HTU21D;64831;44.870;37.336;2022-11-25T22:48:33;14.21;75.65
76104;HTU21D;64831;44.870;37.336;2022-11-25T22:51:00;14.19;75.66
76104;HTU21D;64831;44.870;37.336;2022-11-25T22:53:27;14.17;75.73
76104;HTU21D;64831;44.870;37.336;2022-11-25T22:55:54;14.17;75.83
76104;HTU21D;64831;44.870;37.336;2022-11-25T22:58:24;14.18;75.96
76104;HTU21D;64831;44.870;37.336;2022-11-25T23:00:50;14.17;76.00
76104;HTU21D;64831;44.870;37.336;2022-11-25T23:03:22;14.19;76.09
76104;HTU21D;64831;44.870;37.336;2022-11-25T23:05:50;14.20;76.15
76104;HTU21D;64831;44.870;37.336;2022-11-25T23:08:22;14.20;76.12
76104;HTU21D;64831;44.870;37.336;2022-11-25T23:10:49;14.20;76.15
76104;HTU21D;64831;44.870;37.336;2022-11-25T23:13:16;14.18;76.18
76104;HTU21D;64831;44.870;37.336;2022-11-25T23:15:50;14.17;76.23
76104;HTU21D;64831;44.870;37.336;2022-11-25T23:18:29;14.15;76.36
76104;HTU21D;64831;44.870;37.336;2022-11-25T23:20:57;14.12;76.47
76104;HTU21D;64831;44.870;37.336;2022-11-25T23:23:25;14.09;76.60
76104;HTU21D;64831;44.870;37.336;2022-11-25T23:25:55;14.07;76.68
76104;HTU21D;64831;44.870;37.336;2022-11-25T23:28:21;14.06;76.82
76104;HTU21D;64831;44.870;37.336;2022-11-25T23:30:48;14.07;76.90
76104;HTU21D;64831;44.870;37.336;2022-11-25T23:33:26;14.07;76.90
76104;HTU21D;64831;44.870;37.336;2022-11-25T23:35:53;14.06;76.89
76104;HTU21D;64831;44.870;37.336;2022-11-25T23:38:22;14.07;76.92
76104;HTU21D;64831;44.870;37.336;2022-11-25T23:40:49;14.06;76.91
76104;HTU21D;64831;44.870;37.336;2022-11-25T23:43:16;14.01;76.79
76104;HTU21D;64831;44.870;37.336;2022-11-25T23:45:53;13.98;76.95
76104;HTU21D;64831;44.870;37.336;2022-11-25T23:48:22;13.95;77.07
76104;HTU21D;64831;44.870;37.336;2022-11-25T23:50:49;13.95;77.16
76104;HTU21D;64831;44.870;37.336;2022-11-25T23:53:32;13.98;77.24
76104;HTU21D;64831;44.870;37.336;2022-11-25T23:55:59;13.96;77.25
76104;HTU21D;64831;44.870;37.336;2022-11-25T23:58:28;13.95;77.27
